createdAt,value
2023-06-29T00:09:16.182Z,3.224
2023-06-29T00:24:58.937Z,3.227
2023-06-29T00:40:41.596Z,3.224
2023-06-29T00:56:23.698Z,3.223
2023-06-29T01:12:06.137Z,3.223
2023-06-29T01:27:48.425Z,3.223
2023-06-29T01:43:30.903Z,3.223
2023-06-29T02:14:55.304Z,3.223
2023-06-29T02:30:38.306Z,3.221
2023-06-29T02:46:20.565Z,3.221
2023-06-29T03:02:03.321Z,3.225
2023-06-29T03:17:45.504Z,3.221
2023-06-29T03:33:28.117Z,3.223
2023-06-29T03:49:10.176Z,3.223
2023-06-29T04:04:52.984Z,3.221
2023-06-29T04:20:35.450Z,3.221
2023-06-29T04:52:00.498Z,3.231
2023-06-29T05:07:43.503Z,3.229
2023-06-29T05:23:26.225Z,3.236
2023-06-29T05:39:08.268Z,3.25
2023-06-29T05:54:50.289Z,3.274
2023-06-29T06:10:32.485Z,3.308
2023-06-29T06:26:15.007Z,3.292
2023-06-29T06:41:57.885Z,3.281
2023-06-29T06:57:41.169Z,3.274
2023-06-29T07:29:05.296Z,3.263
2023-06-29T07:44:47.859Z,3.257
2023-06-29T08:00:30.591Z,3.253
2023-06-29T08:16:13.370Z,3.451
2023-06-29T08:31:55.424Z,3.42
2023-06-29T08:47:37.979Z,3.401
2023-06-29T09:03:20.496Z,3.383
2023-06-29T09:19:02.631Z,3.366
2023-06-29T09:34:44.844Z,3.354
2023-06-29T09:50:27.628Z,3.341
2023-06-29T10:06:09.664Z,3.332
2023-06-29T10:21:52.206Z,3.31
2023-06-29T10:37:34.316Z,3.3
2023-06-29T10:53:16.775Z,3.294
2023-06-29T11:09:02.274Z,3.288
2023-06-29T11:24:41.503Z,3.281
2023-06-29T11:40:24.262Z,3.276
2023-06-29T11:56:07.013Z,3.27
2023-06-29T12:11:49.121Z,3.264
2023-06-29T12:27:31.189Z,3.259
2023-06-29T12:43:13.889Z,3.256
2023-06-29T12:58:55.965Z,3.459
2023-06-29T13:14:37.933Z,3.431
2023-06-29T13:30:20.206Z,3.411
2023-06-29T13:46:02.999Z,3.394
2023-06-29T14:01:45.488Z,3.379
2023-06-29T14:17:28.308Z,3.366
2023-06-29T14:33:11.112Z,3.353
2023-06-29T14:48:53.724Z,3.343
2023-06-29T15:04:36.303Z,3.332
2023-06-29T15:36:01.467Z,3.301
2023-06-29T15:51:43.720Z,3.294
2023-06-29T16:07:26.227Z,3.288
2023-06-29T16:23:08.956Z,3.281
2023-06-29T16:38:51.075Z,3.275
2023-06-29T16:54:33.563Z,3.268
2023-06-29T17:10:15.613Z,3.263
2023-06-29T17:25:57.770Z,3.259
2023-06-29T17:41:40.146Z,3.253
2023-06-29T17:57:22.619Z,3.263
2023-06-29T18:13:04.432Z,3.26
2023-06-29T18:28:46.873Z,3.257
2023-06-29T18:44:29.629Z,3.252
2023-06-29T19:00:12.212Z,3.247
2023-06-29T19:15:54.914Z,3.246
2023-06-29T19:31:37.786Z,3.242
2023-06-29T19:47:19.554Z,3.239
2023-06-29T20:03:02.333Z,3.236
2023-06-29T20:18:44.868Z,3.234
2023-06-29T20:34:27.508Z,3.232
2023-06-29T20:35:14.677Z,3.229
2023-06-29T20:50:57.189Z,3.231
2023-06-29T21:06:40.210Z,3.228
2023-06-29T21:22:22.613Z,3.227
2023-06-29T21:38:05.153Z,3.227
2023-06-29T21:53:48.141Z,3.224
2023-06-29T22:09:31.057Z,3.224
2023-06-29T22:25:13.684Z,3.224
2023-06-29T22:40:55.987Z,3.217
2023-06-29T22:56:38.733Z,3.217
2023-06-29T23:12:21.438Z,3.216
2023-06-29T23:28:03.411Z,3.216
2023-06-29T23:43:45.721Z,3.216
2023-06-29T23:59:28.364Z,3.216
